VLVT/VTE METAR and TAF weather

Enter ICAO airport designator
Station Type Date Time Source
VLVT METAR 2019/04/23 04:30 UTC NOAA

VLVT 230430Z 20002KT 7000 SCT020 BKN040 32/21 Q1010 NOSIG


Station Type Date Time Source
VLVT Decoded METAR 2019/04/23 04:30 UTC NOAA

Vientiane, Laos (VLVT) 17-57N 102-34E 171M
Apr 23, 2019 - 12:30 AM EDT / 2019.04.23 0430 UTC
Wind: from the SSW (200 degrees) at 2 MPH (2 KT):0
Visibility: 4 mile(s):0
Sky conditions: mostly cloudy
Temperature: 89 F (32 C)
Dew Point: 69 F (21 C)
Relative Humidity: 52%
Pressure (altimeter): 29.83 in. Hg (1010 hPa)
ob: VLVT 230430Z 20002KT 7000 SCT020 BKN040 32/21 Q1010 NOSIG
cycle: 4

Station Type Date Time Source
VLVT TAF 2019/04/22 18:39 UTC NOAA

TAF TAF VLVT 221700Z 2218/2318 22004KT 7000 SCT020 BKN040
TEMPO 2218/2223 4000 BR BKN040 BKN083

Example: see airport list